Time;durP1;ratioP1;P1;durP2;ratioP2;P2;SDS_P1;SDS_P2;PMS_P1;PMS_P2;Temp;Humidity;BMP_temperature;BMP_pressure;BME280_temperature;BME280_humidity;BME280_pressure;Samples;Min_cycle;Max_cycle;Signal;HPM_P1;HPM_P2
2022/08/03 00:02:06;;;;;;;32.20;30.70;;;21.00;73.40;;;;;;4982475;28;21085;-70
2022/08/03 00:04:33;;;;;;;32.47;30.97;;;20.90;73.50;;;;;;4989130;28;20482;-70
2022/08/03 00:06:59;;;;;;;33.50;32.00;;;20.80;73.80;;;;;;4984581;28;20573;-69
2022/08/03 00:09:26;;;;;;;33.57;31.97;;;20.70;74.10;;;;;;4989557;28;21030;-69
2022/08/03 00:11:55;;;;;;;30.83;29.33;;;20.70;74.40;;;;;;4986188;28;20800;-70
2022/08/03 00:14:22;;;;;;;32.30;30.70;;;20.70;74.40;;;;;;4985664;28;20464;-69
2022/08/03 00:16:49;;;;;;;32.47;30.63;;;20.60;74.40;;;;;;4986080;28;20564;-69
2022/08/03 00:19:16;;;;;;;30.70;29.30;;;20.60;74.50;;;;;;4988345;28;20539;-69
2022/08/03 00:21:42;;;;;;;31.20;29.60;;;20.60;74.70;;;;;;4987228;28;20819;-70
2022/08/03 00:24:09;;;;;;;31.33;29.90;;;20.50;74.80;;;;;;4985435;28;20486;-69
2022/08/03 00:26:36;;;;;;;32.23;30.80;;;20.50;75.20;;;;;;4988303;28;20526;-69
2022/08/03 00:29:05;;;;;;;30.57;29.17;;;20.50;75.10;;;;;;4985481;28;20468;-70
2022/08/03 00:31:31;;;;;;;31.40;29.87;;;20.60;74.90;;;;;;4986337;28;20570;-69
2022/08/03 00:33:58;;;;;;;31.57;30.10;;;20.50;75.10;;;;;;4991072;28;20547;-69
2022/08/03 00:36:25;;;;;;;31.30;29.77;;;20.40;75.40;;;;;;4984363;28;20539;-69
2022/08/03 00:38:52;;;;;;;31.40;29.90;;;20.50;75.30;;;;;;4986291;28;20573;-70
2022/08/03 00:41:19;;;;;;;30.53;28.83;;;20.40;75.20;;;;;;4990216;28;20469;-70
2022/08/03 00:43:47;;;;;;;29.87;28.37;;;20.50;75.10;;;;;;4987624;28;20504;-70
2022/08/03 00:46:15;;;;;;;30.63;29.13;;;20.50;74.90;;;;;;4988771;28;20468;-70
2022/08/03 00:48:42;;;;;;;31.80;30.27;;;20.50;74.60;;;;;;4977317;28;20485;-69
2022/08/03 00:51:09;;;;;;;30.27;28.77;;;20.60;74.40;;;;;;4989265;28;20528;-69
2022/08/03 00:53:37;;;;;;;28.87;27.57;;;20.60;73.90;;;;;;4981783;28;21124;-70
2022/08/03 00:56:04;;;;;;;31.47;30.07;;;20.60;73.70;;;;;;4986545;28;20557;-72
2022/08/03 00:58:31;;;;;;;30.87;29.47;;;20.60;73.60;;;;;;4984379;28;20633;-73
2022/08/03 01:00:58;;;;;;;30.77;29.27;;;20.60;73.80;;;;;;4988452;28;20995;-72
2022/08/03 01:03:26;;;;;;;31.47;29.97;;;20.60;73.90;;;;;;4980190;28;20553;-72
2022/08/03 01:06:00;;;;;;;31.13;29.63;;;20.60;74.10;;;;;;4988367;28;20535;-72
2022/08/03 01:08:37;;;;;;;32.07;30.50;;;20.60;74.40;;;;;;4984695;28;20488;-72
2022/08/03 01:11:10;;;;;;;30.17;28.57;;;20.50;74.80;;;;;;4985703;28;20993;-72
2022/08/03 01:13:44;;;;;;;31.27;29.37;;;20.40;75.30;;;;;;4984039;28;20544;-72
2022/08/03 01:16:18;;;;;;;31.47;29.70;;;20.40;75.40;;;;;;4975237;28;20462;-72
2022/08/03 01:18:52;;;;;;;30.83;29.33;;;20.30;75.70;;;;;;4984088;28;20502;-71
2022/08/03 01:21:26;;;;;;;31.83;30.33;;;20.20;76.10;;;;;;4984948;28;20540;-71
2022/08/03 01:24:15;;;;;;;32.37;30.87;;;20.20;76.20;;;;;;4985164;28;21169;-73
2022/08/03 01:26:55;;;;;;;34.63;32.83;;;20.20;76.20;;;;;;4989347;28;20543;-72
2022/08/03 01:29:58;;;;;;;34.80;33.07;;;20.20;76.30;;;;;;4991432;28;20578;-71
2022/08/03 01:32:30;;;;;;;32.67;31.07;;;20.20;76.30;;;;;;4988672;28;20829;-73
2022/08/03 01:35:09;;;;;;;33.10;31.50;;;20.20;76.20;;;;;;4989978;28;20464;-71
2022/08/03 01:37:42;;;;;;;35.03;33.33;;;20.10;76.40;;;;;;4988867;28;20486;-72
2022/08/03 01:40:12;;;;;;;35.57;34.00;;;20.10;76.40;;;;;;4991764;28;20515;-71
2022/08/03 01:42:40;;;;;;;34.40;32.80;;;20.10;76.30;;;;;;4986967;28;20936;-69
2022/08/03 01:45:12;;;;;;;32.97;31.37;;;20.00;76.40;;;;;;4989702;28;20572;-69
2022/08/03 01:47:40;;;;;;;34.13;32.50;;;20.00;76.60;;;;;;4986766;28;20613;-69
2022/08/03 01:50:09;;;;;;;33.00;31.30;;;19.90;76.80;;;;;;4990365;28;20563;-69
2022/08/03 01:52:37;;;;;;;33.83;32.27;;;19.80;77.30;;;;;;4989664;28;20465;-70
2022/08/03 01:55:06;;;;;;;32.60;31.00;;;19.70;77.70;;;;;;4989343;28;20553;-69
2022/08/03 01:57:35;;;;;;;32.97;31.40;;;19.70;77.90;;;;;;4990710;28;20854;-69
2022/08/03 02:00:02;;;;;;;31.13;29.73;;;19.70;78.00;;;;;;4989987;28;20524;-69
2022/08/03 02:02:32;;;;;;;30.97;29.50;;;19.70;77.90;;;;;;4985751;28;20921;-70
2022/08/03 02:05:01;;;;;;;30.60;29.10;;;19.70;78.20;;;;;;4985795;28;20472;-69
2022/08/03 02:07:29;;;;;;;32.53;30.83;;;19.70;78.20;;;;;;4986814;28;20479;-69
2022/08/03 02:09:58;;;;;;;31.40;29.80;;;19.60;78.60;;;;;;4988473;28;20478;-70
2022/08/03 02:12:26;;;;;;;31.33;29.87;;;19.50;78.80;;;;;;4990295;28;20560;-69
2022/08/03 02:14:56;;;;;;;32.10;30.50;;;19.60;78.90;;;;;;4989767;28;20492;-69
2022/08/03 02:17:25;;;;;;;31.10;29.60;;;19.60;78.80;;;;;;4982822;28;20448;-69
2022/08/03 02:19:56;;;;;;;38.73;36.93;;;19.60;78.90;;;;;;4989840;28;20511;-69
2022/08/03 02:22:24;;;;;;;31.27;29.77;;;19.60;78.70;;;;;;4985720;28;20542;-69
2022/08/03 02:24:51;;;;;;;33.77;31.87;;;19.60;78.80;;;;;;4975999;28;20462;-69
2022/08/03 02:27:21;;;;;;;38.93;37.20;;;19.40;79.00;;;;;;4987414;28;20480;-69
2022/08/03 02:29:52;;;;;;;35.93;34.03;;;19.30;79.60;;;;;;4986917;28;21046;-69
2022/08/03 02:32:25;;;;;;;32.33;30.73;;;19.30;79.80;;;;;;4984763;28;20558;-69
2022/08/03 02:34:56;;;;;;;34.73;32.80;;;19.30;79.90;;;;;;4986773;28;20541;-69
2022/08/03 02:37:27;;;;;;;32.77;31.17;;;19.30;79.90;;;;;;4987403;28;20514;-69
2022/08/03 02:39:59;;;;;;;35.93;34.13;;;19.20;80.20;;;;;;4987685;28;20474;-69
2022/08/03 02:42:28;;;;;;;29.37;27.97;;;19.30;80.20;;;;;;4986194;28;20553;-69
2022/08/03 02:44:57;;;;;;;32.40;30.80;;;19.30;80.20;;;;;;4987241;28;21017;-69
2022/08/03 02:47:27;;;;;;;32.53;31.13;;;19.30;80.10;;;;;;4987587;28;20618;-69
2022/08/03 02:49:58;;;;;;;34.03;32.30;;;19.30;80.00;;;;;;4990977;28;20509;-69
2022/08/03 02:52:30;;;;;;;38.43;36.70;;;19.30;80.00;;;;;;4981508;28;20498;-70
2022/08/03 02:54:59;;;;;;;41.37;39.47;;;19.30;80.00;;;;;;4989353;28;20491;-70
2022/08/03 02:57:28;;;;;;;30.80;29.20;;;19.20;80.10;;;;;;4987668;28;20495;-69
2022/08/03 02:59:57;;;;;;;39.50;37.70;;;19.20;80.20;;;;;;4990506;28;20579;-69
2022/08/03 03:02:24;;;;;;;30.87;29.17;;;19.20;80.40;;;;;;4983256;28;20479;-69
2022/08/03 03:04:53;;;;;;;30.30;28.77;;;19.10;80.60;;;;;;4990209;28;20464;-70
2022/08/03 03:07:22;;;;;;;30.90;29.43;;;19.10;80.90;;;;;;4985479;28;20582;-70
2022/08/03 03:09:50;;;;;;;30.40;28.83;;;19.10;80.90;;;;;;4987417;28;20678;-70
2022/08/03 03:12:18;;;;;;;42.03;40.03;;;19.20;80.70;;;;;;4986876;28;20940;-70
2022/08/03 03:14:45;;;;;;;31.73;30.23;;;19.20;80.60;;;;;;4988002;28;20559;-69
2022/08/03 03:17:15;;;;;;;33.30;31.60;;;19.20;80.70;;;;;;4977794;28;20460;-69
2022/08/03 03:19:44;;;;;;;34.40;32.77;;;19.20;80.50;;;;;;4986689;28;20486;-70
2022/08/03 03:22:13;;;;;;;51.70;49.30;;;19.20;80.50;;;;;;4989048;28;20456;-69
2022/08/03 03:24:42;;;;;;;31.20;29.50;;;19.20;80.70;;;;;;4987266;28;20468;-69
2022/08/03 03:27:09;;;;;;;34.63;32.93;;;19.20;80.60;;;;;;4990804;28;21032;-72
2022/08/03 03:29:37;;;;;;;51.50;49.07;;;19.20;80.70;;;;;;4988669;28;20482;-72
2022/08/03 03:32:04;;;;;;;42.57;40.63;;;19.20;80.90;;;;;;4986663;28;20555;-72
2022/08/03 03:34:32;;;;;;;38.47;36.63;;;19.20;80.70;;;;;;4989698;28;20455;-73
2022/08/03 03:36:59;;;;;;;42.00;40.20;;;19.20;80.70;;;;;;4986181;28;20487;-72
2022/08/03 03:39:26;;;;;;;32.27;30.60;;;19.20;80.80;;;;;;4988605;28;20523;-71
2022/08/03 03:41:56;;;;;;;72.63;69.23;;;19.20;80.70;;;;;;4989470;28;20546;-72
2022/08/03 03:44:27;;;;;;;43.73;41.53;;;19.20;80.90;;;;;;4991211;28;20505;-71
2022/08/03 03:46:55;;;;;;;35.00;33.33;;;19.20;81.00;;;;;;4988156;28;20460;-73
2022/08/03 03:49:22;;;;;;;43.37;41.00;;;19.10;81.20;;;;;;4983366;28;21061;-72
2022/08/03 03:51:49;;;;;;;37.83;36.03;;;19.20;81.20;;;;;;4988785;28;20554;-71
2022/08/03 03:54:16;;;;;;;31.97;30.47;;;19.20;81.30;;;;;;4978493;28;21059;-73
2022/08/03 03:56:42;;;;;;;72.30;69.40;;;19.20;81.30;;;;;;4988439;28;20462;-72
2022/08/03 03:59:11;;;;;;;40.27;38.33;;;19.30;81.30;;;;;;4987689;28;20480;-71
2022/08/03 04:01:38;;;;;;;46.10;44.00;;;19.40;81.10;;;;;;4985911;28;20545;-72
2022/08/03 04:12:18;;;;;;;38.50;36.67;;;19.50;80.70;;;;;;4985675;28;20903;-70
2022/08/03 04:14:48;;;;;;;33.77;32.07;;;19.50;80.70;;;;;;4984991;28;20559;-69
2022/08/03 04:17:16;;;;;;;46.47;44.37;;;19.60;80.70;;;;;;4987953;28;20558;-70
2022/08/03 04:19:47;;;;;;;39.53;37.73;;;19.60;80.50;;;;;;4988000;28;20508;-70
2022/08/03 04:22:18;;;;;;;33.87;32.20;;;19.70;80.40;;;;;;4985137;28;20546;-70
2022/08/03 04:24:48;;;;;;;47.27;45.03;;;19.70;80.50;;;;;;4984250;28;20508;-69
2022/08/03 04:27:20;;;;;;;56.87;54.33;;;19.70;80.50;;;;;;4985320;28;20661;-69
2022/08/03 04:29:51;;;;;;;37.47;35.73;;;19.80;80.50;;;;;;4986022;28;20571;-70
2022/08/03 04:32:20;;;;;;;45.20;42.87;;;19.90;80.30;;;;;;4984629;28;21007;-68
2022/08/03 04:34:47;;;;;;;43.60;41.40;;;19.90;80.20;;;;;;4993069;28;20551;-67
2022/08/03 04:37:22;;;;;;;35.77;34.17;;;20.00;80.10;;;;;;4978972;28;20825;-68
2022/08/03 04:39:50;;;;;;;50.97;48.60;;;20.00;80.10;;;;;;4988241;28;20580;-67
2022/08/03 04:42:20;;;;;;;36.00;34.30;;;20.10;79.90;;;;;;4976222;28;20624;-69
2022/08/03 04:44:50;;;;;;;53.57;50.43;;;20.20;79.60;;;;;;4980143;28;20552;-68
2022/08/03 04:47:17;;;;;;;39.17;37.37;;;20.20;79.40;;;;;;4985612;28;20568;-70
2022/08/03 04:49:44;;;;;;;44.03;41.97;;;20.30;79.10;;;;;;4980835;28;20560;-72
2022/08/03 04:52:11;;;;;;;34.30;32.70;;;20.40;79.70;;;;;;4976103;28;20472;-71
2022/08/03 04:54:42;;;;;;;45.10;42.80;;;20.40;79.00;;;;;;4983145;28;20486;-74
2022/08/03 04:57:10;;;;;;;37.10;35.30;;;20.50;78.70;;;;;;4985720;28;20481;-69
2022/08/03 04:59:37;;;;;;;46.07;43.90;;;20.60;78.40;;;;;;4987336;28;20565;-70
2022/08/03 05:02:09;;;;;;;40.20;38.30;;;20.60;78.20;;;;;;4984737;28;20460;-69
2022/08/03 05:04:36;;;;;;;45.27;43.17;;;20.70;78.30;;;;;;4986748;28;20466;-71
2022/08/03 05:07:04;;;;;;;39.23;37.17;;;20.80;78.10;;;;;;4985274;28;20521;-70
2022/08/03 05:09:30;;;;;;;41.53;39.53;;;20.90;77.70;;;;;;4987617;28;21034;-69
2022/08/03 05:11:57;;;;;;;33.90;32.20;;;21.00;77.40;;;;;;4986618;28;20476;-70
2022/08/03 05:14:24;;;;;;;32.13;30.63;;;21.10;76.80;;;;;;4992248;28;20497;-69
2022/08/03 05:16:51;;;;;;;45.57;43.20;;;21.10;76.60;;;;;;4986552;28;20457;-69
2022/08/03 05:19:19;;;;;;;33.80;32.10;;;21.10;76.30;;;;;;4991700;28;20486;-72
2022/08/03 05:21:46;;;;;;;31.37;29.87;;;21.20;76.20;;;;;;4985414;28;20537;-71
2022/08/03 05:24:13;;;;;;;41.27;39.23;;;21.30;76.20;;;;;;4986733;28;20562;-71
2022/08/03 05:26:40;;;;;;;32.40;30.87;;;21.40;75.90;;;;;;4992139;28;20458;-70
2022/08/03 05:29:07;;;;;;;47.87;45.60;;;21.50;75.50;;;;;;4987600;28;20481;-70
2022/08/03 05:31:34;;;;;;;37.73;35.87;;;21.60;75.20;;;;;;4989128;28;20477;-70
2022/08/03 05:34:01;;;;;;;36.20;34.40;;;21.70;74.80;;;;;;4989809;28;20471;-70
2022/08/03 05:36:29;;;;;;;34.40;32.77;;;21.80;74.80;;;;;;4986048;28;20490;-71
2022/08/03 05:38:56;;;;;;;55.60;52.80;;;21.90;74.70;;;;;;4987827;28;20534;-68
2022/08/03 05:41:23;;;;;;;41.13;39.13;;;21.90;74.50;;;;;;4990304;28;20483;-68
2022/08/03 05:43:51;;;;;;;38.67;36.57;;;22.00;74.20;;;;;;4990148;28;20540;-68
2022/08/03 05:46:18;;;;;;;35.73;34.03;;;22.10;73.70;;;;;;4988918;28;20503;-68
2022/08/03 05:48:45;;;;;;;46.83;44.30;;;22.20;73.40;;;;;;4983138;28;21024;-73
2022/08/03 05:51:12;;;;;;;36.83;35.03;;;22.30;73.20;;;;;;4989714;28;20484;-70
2022/08/03 05:53:40;;;;;;;46.30;43.93;;;22.40;73.00;;;;;;4986656;28;20540;-70
2022/08/03 05:56:07;;;;;;;34.27;32.57;;;22.50;72.50;;;;;;4987451;28;20515;-70
2022/08/03 05:58:34;;;;;;;43.40;40.70;;;22.60;72.30;;;;;;4983150;28;20639;-70
2022/08/03 06:01:01;;;;;;;45.17;43.07;;;22.70;72.10;;;;;;4987498;28;20500;-71
2022/08/03 06:03:28;;;;;;;39.47;37.20;;;22.80;71.80;;;;;;4987914;28;20963;-69
2022/08/03 06:05:55;;;;;;;39.43;37.33;;;22.90;71.50;;;;;;4984524;28;20461;-70
2022/08/03 06:08:23;;;;;;;36.47;34.53;;;23.00;71.50;;;;;;4986220;28;20484;-69
2022/08/03 06:10:51;;;;;;;50.90;48.13;;;23.10;71.20;;;;;;4991225;28;20565;-68
2022/08/03 06:13:18;;;;;;;33.00;31.50;;;23.20;71.00;;;;;;4982529;28;20951;-69
2022/08/03 06:15:45;;;;;;;43.57;41.43;;;23.30;70.80;;;;;;4983708;28;20563;-68
2022/08/03 06:18:12;;;;;;;34.90;32.80;;;23.40;70.70;;;;;;4988098;28;20549;-67
2022/08/03 06:20:39;;;;;;;34.57;32.93;;;23.50;70.20;;;;;;4985807;28;20490;-72
2022/08/03 06:23:06;;;;;;;44.70;42.53;;;23.60;69.90;;;;;;4985823;28;21223;-68
2022/08/03 06:25:33;;;;;;;50.10;47.10;;;23.70;69.60;;;;;;4985236;28;20462;-67
2022/08/03 06:28:02;;;;;;;34.90;33.30;;;23.80;69.30;;;;;;4986838;28;20516;-67
2022/08/03 06:30:42;;;;;;;35.70;34.00;;;23.90;69.00;;;;;;4990363;28;20494;-66
2022/08/03 06:33:10;;;;;;;51.93;49.30;;;24.00;68.50;;;;;;4979389;28;20467;-71
2022/08/03 06:35:38;;;;;;;58.43;55.53;;;24.10;68.40;;;;;;4989053;28;20470;-70
2022/08/03 06:38:04;;;;;;;40.97;38.80;;;24.20;67.90;;;;;;4983616;28;20551;-71
2022/08/03 06:40:38;;;;;;;38.73;36.83;;;24.40;67.60;;;;;;4981733;28;21016;-70
2022/08/03 06:43:08;;;;;;;35.33;33.63;;;24.50;67.00;;;;;;4977342;28;20907;-70
2022/08/03 06:45:35;;;;;;;53.00;50.50;;;24.60;66.60;;;;;;4983634;28;20800;-72
2022/08/03 06:48:04;;;;;;;35.83;34.10;;;24.60;66.50;;;;;;4990327;28;20489;-71
2022/08/03 06:50:32;;;;;;;37.20;34.67;;;24.80;66.20;;;;;;4989883;28;20557;-70
2022/08/03 06:52:59;;;;;;;35.80;34.13;;;24.90;65.90;;;;;;4985396;28;20466;-70
2022/08/03 06:55:27;;;;;;;53.83;51.40;;;25.00;65.60;;;;;;4990632;28;20553;-71
2022/08/03 06:57:54;;;;;;;36.57;34.87;;;25.10;65.00;;;;;;4982312;28;20555;-71
2022/08/03 07:00:23;;;;;;;46.03;44.00;;;25.30;64.70;;;;;;4990771;28;20510;-71
2022/08/03 07:02:50;;;;;;;43.13;41.13;;;25.40;64.40;;;;;;4988087;28;20889;-70
2022/08/03 07:05:17;;;;;;;45.53;43.13;;;25.50;64.10;;;;;;4990646;28;20557;-71
2022/08/03 07:07:44;;;;;;;51.83;49.43;;;25.60;63.80;;;;;;4990016;28;21780;-69
2022/08/03 07:10:12;;;;;;;38.97;36.73;;;25.70;63.60;;;;;;4989670;28;20492;-69
2022/08/03 07:12:40;;;;;;;36.50;34.60;;;25.80;63.40;;;;;;4989014;28;20471;-70
2022/08/03 07:15:08;;;;;;;36.17;34.27;;;25.90;63.10;;;;;;4987810;28;20465;-70
2022/08/03 07:17:39;;;;;;;36.93;35.23;;;26.20;62.10;;;;;;4987114;28;20544;-71
2022/08/03 07:20:08;;;;;;;52.67;50.30;;;26.20;62.00;;;;;;4990720;28;20559;-69
2022/08/03 07:22:35;;;;;;;42.23;40.23;;;26.20;62.10;;;;;;4985801;28;20884;-69
2022/08/03 07:25:03;;;;;;;54.93;52.27;;;26.20;61.70;;;;;;4986992;28;20466;-68
2022/08/03 07:27:31;;;;;;;40.53;38.53;;;26.30;61.10;;;;;;4990348;28;20461;-68
2022/08/03 07:29:58;;;;;;;49.27;46.67;;;26.30;60.90;;;;;;4988607;28;20490;-68
2022/08/03 07:32:27;;;;;;;49.37;46.97;;;26.50;60.60;;;;;;4985595;28;20552;-69
2022/08/03 07:34:55;;;;;;;40.47;38.67;;;26.50;60.30;;;;;;4985684;28;20466;-69
2022/08/03 07:37:22;;;;;;;48.37;46.07;;;26.70;59.90;;;;;;4987410;28;20462;-68
2022/08/03 07:39:49;;;;;;;58.13;55.63;;;26.80;59.80;;;;;;4985113;28;20519;-67
2022/08/03 07:42:16;;;;;;;39.80;37.77;;;26.90;59.40;;;;;;4989527;28;20564;-68
2022/08/03 07:44:43;;;;;;;42.97;40.87;;;27.00;58.80;;;;;;4989580;28;21018;-69
2022/08/03 07:47:10;;;;;;;52.87;50.47;;;27.10;58.60;;;;;;4988767;28;20467;-69
2022/08/03 07:49:40;;;;;;;37.77;36.03;;;27.20;59.00;;;;;;4979878;28;20590;-71
2022/08/03 07:54:53;;;;;;;38.97;37.27;;;27.30;58.40;;;;;;4985511;28;20468;-71
2022/08/03 07:57:20;;;;;;;47.80;45.40;;;27.40;58.20;;;;;;4982356;28;20564;-71
2022/08/03 07:59:47;;;;;;;57.57;54.60;;;27.50;58.20;;;;;;4987304;28;20866;-71
2022/08/03 08:02:14;;;;;;;53.33;50.73;;;27.60;58.10;;;;;;4987067;28;20461;-71
2022/08/03 08:04:41;;;;;;;36.83;34.97;;;27.60;58.00;;;;;;4987425;28;20517;-71
2022/08/03 08:07:10;;;;;;;47.27;44.20;;;27.70;57.70;;;;;;4989570;28;20461;-71
2022/08/03 08:09:37;;;;;;;54.67;52.10;;;27.70;57.50;;;;;;4988895;28;20925;-71
2022/08/03 08:12:06;;;;;;;36.00;34.20;;;27.80;57.60;;;;;;4987570;28;20825;-71
2022/08/03 08:14:34;;;;;;;40.37;38.50;;;27.90;57.10;;;;;;4978751;28;20542;-72
2022/08/03 08:17:00;;;;;;;39.47;37.50;;;27.90;56.40;;;;;;4982398;28;20532;-71
2022/08/03 08:19:27;;;;;;;49.97;47.70;;;28.00;56.30;;;;;;4989298;28;20478;-71
2022/08/03 08:21:54;;;;;;;36.30;34.50;;;28.10;55.90;;;;;;4988156;28;20451;-72
2022/08/03 08:24:23;;;;;;;40.53;38.57;;;28.10;55.70;;;;;;4985405;28;20569;-71
2022/08/03 08:26:50;;;;;;;39.47;37.47;;;28.20;55.00;;;;;;4988312;28;20453;-71
2022/08/03 08:29:17;;;;;;;45.70;43.50;;;28.30;54.90;;;;;;4986975;28;20493;-71
2022/08/03 08:31:44;;;;;;;41.07;39.17;;;28.40;53.80;;;;;;4987467;28;20465;-70
2022/08/03 08:34:10;;;;;;;48.07;45.67;;;28.40;53.20;;;;;;4986279;28;20454;-71
2022/08/03 08:36:37;;;;;;;54.87;52.40;;;28.50;53.30;;;;;;4987802;28;20829;-70
2022/08/03 08:39:04;;;;;;;46.97;44.73;;;28.60;53.20;;;;;;4988187;28;20474;-71
2022/08/03 08:41:33;;;;;;;41.07;39.00;;;28.70;53.50;;;;;;4986639;28;20481;-71
2022/08/03 08:44:01;;;;;;;36.67;34.93;;;28.70;53.40;;;;;;4986810;28;20462;-71
2022/08/03 08:46:31;;;;;;;55.67;52.73;;;28.80;53.50;;;;;;4982711;28;20545;-70
2022/08/03 08:49:00;;;;;;;50.57;48.03;;;28.90;52.40;;;;;;4986425;28;20971;-69
2022/08/03 08:51:30;;;;;;;48.23;45.63;;;28.90;52.90;;;;;;4989108;28;20544;-69
2022/08/03 08:54:01;;;;;;;41.10;39.10;;;29.00;53.30;;;;;;4987570;28;20464;-69
2022/08/03 08:56:29;;;;;;;35.30;33.60;;;29.00;53.20;;;;;;4987016;28;20509;-69
2022/08/03 08:58:59;;;;;;;42.73;40.73;;;29.10;53.10;;;;;;4986329;28;20545;-69
2022/08/03 09:01:26;;;;;;;58.00;55.20;;;29.20;52.90;;;;;;4988556;28;20465;-69
2022/08/03 09:03:54;;;;;;;56.70;54.10;;;29.30;53.10;;;;;;4985669;28;21024;-69
2022/08/03 09:06:22;;;;;;;51.80;49.20;;;29.30;53.00;;;;;;4987733;28;20466;-69
2022/08/03 09:08:49;;;;;;;40.80;38.60;;;29.60;52.50;;;;;;4987504;28;20948;-69
2022/08/03 09:11:16;;;;;;;43.10;41.10;;;29.70;52.20;;;;;;4988672;28;20513;-69
2022/08/03 09:13:43;;;;;;;48.27;45.80;;;29.70;52.40;;;;;;4985956;28;20553;-69
2022/08/03 09:16:16;;;;;;;45.30;43.20;;;29.60;52.80;;;;;;4988971;28;20516;-69
2022/08/03 09:18:45;;;;;;;53.80;51.30;;;29.50;53.10;;;;;;4987105;28;20784;-69
2022/08/03 09:21:17;;;;;;;36.57;34.57;;;29.60;52.00;;;;;;4988200;28;20565;-69
2022/08/03 09:23:45;;;;;;;52.40;50.00;;;29.70;52.10;;;;;;4980326;28;20552;-68
2022/08/03 09:26:12;;;;;;;51.93;49.53;;;29.70;52.20;;;;;;4988286;28;20462;-70
2022/08/03 09:28:40;;;;;;;33.67;32.07;;;29.70;51.80;;;;;;4987075;28;20883;-69
2022/08/03 09:31:08;;;;;;;54.13;51.50;;;29.80;50.10;;;;;;4979714;28;20490;-69
2022/08/03 09:33:47;;;;;;;58.37;55.63;;;29.90;49.90;;;;;;4986231;28;20854;-69
2022/08/03 09:36:39;;;;;;;43.57;41.57;;;29.90;49.20;;;;;;4977410;28;20561;-70
2022/08/03 09:39:09;;;;;;;36.70;34.90;;;30.10;48.70;;;;;;4986064;28;20549;-69
2022/08/03 09:41:37;;;;;;;44.70;42.53;;;30.00;48.30;;;;;;4987867;28;20462;-70
2022/08/03 09:44:04;;;;;;;51.47;48.73;;;30.00;47.20;;;;;;4984656;28;20809;-70
2022/08/03 09:46:32;;;;;;;54.10;51.40;;;30.10;47.00;;;;;;4989992;28;20594;-70
2022/08/03 09:49:13;;;;;;;39.37;37.53;;;30.20;47.50;;;;;;4989126;28;20462;-70
2022/08/03 09:51:40;;;;;;;49.20;46.83;;;30.20;47.90;;;;;;4991920;28;20454;-71
2022/08/03 09:54:07;;;;;;;36.30;34.60;;;30.20;47.30;;;;;;4989912;28;20556;-68
2022/08/03 09:56:42;;;;;;;42.07;40.10;;;30.40;46.40;;;;;;4990062;28;20497;-68
2022/08/03 09:59:09;;;;;;;38.67;36.87;;;30.60;46.60;;;;;;4989428;28;20527;-68
2022/08/03 10:01:38;;;;;;;49.87;47.63;;;30.60;47.10;;;;;;4992272;28;20489;-68
2022/08/03 10:04:05;;;;;;;42.30;40.37;;;30.70;47.30;;;;;;4989858;28;20453;-69
2022/08/03 10:06:33;;;;;;;57.50;54.80;;;30.80;46.60;;;;;;4992595;28;20532;-68
2022/08/03 10:09:09;;;;;;;43.90;41.80;;;30.90;45.60;;;;;;4989726;28;20572;-69
2022/08/03 10:11:37;;;;;;;48.90;46.40;;;31.00;45.10;;;;;;4991400;28;20561;-69
2022/08/03 10:14:05;;;;;;;53.33;50.43;;;31.10;45.40;;;;;;4988601;28;20566;-69
2022/08/03 10:16:35;;;;;;;59.13;56.10;;;31.10;45.60;;;;;;4986034;28;20546;-68
2022/08/03 10:19:03;;;;;;;61.50;58.70;;;31.20;45.40;;;;;;4989913;28;20460;-73
2022/08/03 10:21:35;;;;;;;48.20;45.90;;;31.30;45.30;;;;;;4991878;28;20466;-70
2022/08/03 10:24:07;;;;;;;40.47;38.67;;;31.30;45.10;;;;;;4990148;28;20462;-70
2022/08/03 10:26:38;;;;;;;40.50;38.60;;;31.40;43.70;;;;;;4990913;28;20461;-69
2022/08/03 10:29:11;;;;;;;53.80;51.13;;;31.40;43.90;;;;;;4980961;28;20560;-69
2022/08/03 10:31:40;;;;;;;45.40;43.40;;;31.40;44.40;;;;;;4992019;28;20533;-69
2022/08/03 10:34:14;;;;;;;44.50;42.50;;;31.30;45.10;;;;;;4987088;28;20549;-69
2022/08/03 10:36:45;;;;;;;54.70;52.00;;;31.40;45.20;;;;;;4992597;28;20490;-69
2022/08/03 10:39:14;;;;;;;38.80;37.20;;;31.30;45.40;;;;;;4989113;28;20473;-69
2022/08/03 10:41:45;;;;;;;51.13;48.63;;;31.40;45.50;;;;;;4991584;28;20505;-69
2022/08/03 10:44:17;;;;;;;44.13;41.93;;;31.40;45.40;;;;;;4989840;28;21023;-69
2022/08/03 10:46:46;;;;;;;57.57;54.97;;;31.50;45.30;;;;;;4990706;28;20462;-69
2022/08/03 10:49:15;;;;;;;56.37;53.97;;;31.50;44.40;;;;;;4989195;28;20489;-69
2022/08/03 10:51:45;;;;;;;44.67;42.40;;;31.60;44.30;;;;;;4991276;28;20486;-69
2022/08/03 10:57:47;;;;;;;47.87;45.30;;;31.60;44.30;;;;;;4989293;28;20462;-70
2022/08/03 11:00:16;;;;;;;47.00;44.90;;;31.80;44.20;;;;;;4991215;28;20549;-70
2022/08/03 11:03:17;;;;;;;60.00;57.20;;;32.00;43.70;;;;;;4977244;28;21042;-69
2022/08/03 11:05:46;;;;;;;57.33;54.37;;;32.00;43.50;;;;;;4989140;28;20983;-69
2022/08/03 11:08:25;;;;;;;40.03;38.13;;;32.00;43.70;;;;;;4989925;28;20454;-69
2022/08/03 11:10:55;;;;;;;48.67;46.27;;;32.10;43.60;;;;;;4990984;28;20512;-69
2022/08/03 11:13:23;;;;;;;47.20;44.67;;;32.20;43.00;;;;;;4985164;28;20458;-71
2022/08/03 11:15:52;;;;;;;59.60;56.70;;;32.20;43.10;;;;;;4985509;28;21079;-70
2022/08/03 11:18:20;;;;;;;64.10;61.30;;;32.30;43.20;;;;;;4985506;28;20497;-72
2022/08/03 11:20:49;;;;;;;51.47;49.10;;;32.40;43.20;;;;;;4986616;28;20558;-70
2022/08/03 11:23:17;;;;;;;61.37;58.57;;;32.30;42.70;;;;;;4987484;28;20501;-70
2022/08/03 11:26:13;;;;;;;45.13;43.13;;;32.20;42.90;;;;;;4988156;28;21035;-70
2022/08/03 11:28:41;;;;;;;45.10;43.10;;;32.20;43.30;;;;;;4980914;28;20466;-71
2022/08/03 11:31:58;;;;;;;58.80;56.20;;;32.20;43.50;;;;;;4990887;28;20489;-70
2022/08/03 11:34:25;;;;;;;41.67;39.50;;;32.40;43.80;;;;;;4989221;28;20634;-71
2022/08/03 11:37:23;;;;;;;40.20;38.40;;;32.30;44.00;;;;;;4991134;28;20872;-70
2022/08/03 11:39:53;;;;;;;50.37;48.03;;;32.60;43.60;;;;;;4981459;28;20540;-71
2022/08/03 11:42:46;;;;;;;46.60;44.60;;;32.70;43.40;;;;;;4989635;28;20462;-70
2022/08/03 11:45:13;;;;;;;69.17;65.97;;;32.70;43.50;;;;;;4989504;28;20490;-70
2022/08/03 11:47:41;;;;;;;50.10;47.83;;;32.80;43.10;;;;;;4988477;28;21026;-70
2022/08/03 11:50:09;;;;;;;56.40;53.87;;;32.70;42.60;;;;;;4989865;28;20560;-77
2022/08/03 11:52:41;;;;;;;54.43;51.97;;;32.50;44.90;;;;;;4988504;28;20486;-73
2022/08/03 11:55:13;;;;;;;54.00;51.60;;;32.50;43.90;;;;;;4987857;28;20478;-75
2022/08/03 11:57:40;;;;;;;50.83;48.53;;;32.60;43.60;;;;;;4990236;28;20572;-74
2022/08/03 12:00:29;;;;;;;39.87;38.17;;;32.60;43.20;;;;;;4987785;28;20473;-74
2022/08/03 12:03:04;;;;;;;59.43;56.63;;;32.40;43.40;;;;;;4988251;28;20481;-74
2022/08/03 12:05:40;;;;;;;47.47;45.37;;;32.40;44.00;;;;;;4990129;28;20469;-74
2022/08/03 12:08:08;;;;;;;44.53;42.60;;;32.30;45.30;;;;;;4987922;28;20458;-73
2022/08/03 12:10:36;;;;;;;43.77;41.77;;;32.40;43.90;;;;;;4987437;28;20485;-74
2022/08/03 12:13:07;;;;;;;52.60;50.27;;;32.60;44.70;;;;;;4984152;28;20462;-74
2022/08/03 12:15:37;;;;;;;66.40;63.13;;;32.50;44.50;;;;;;4988685;28;20462;-75
2022/08/03 12:18:13;;;;;;;56.33;53.80;;;32.60;43.60;;;;;;4981140;28;20465;-75
2022/08/03 12:20:40;;;;;;;61.83;58.60;;;32.60;44.10;;;;;;4986857;28;20909;-74
2022/08/03 12:23:08;;;;;;;67.20;64.20;;;32.60;44.20;;;;;;4989221;28;20557;-75
2022/08/03 12:25:35;;;;;;;56.90;54.17;;;32.60;44.00;;;;;;4985878;28;20465;-74
2022/08/03 12:28:22;;;;;;;57.83;55.00;;;32.70;43.90;;;;;;4984760;28;20469;-75
2022/08/03 12:30:51;;;;;;;66.53;63.43;;;32.70;43.70;;;;;;4983521;28;20493;-77
2022/08/03 12:33:21;;;;;;;42.80;40.50;;;32.70;44.50;;;;;;4984353;28;20461;-78
2022/08/03 12:36:04;;;;;;;62.03;58.60;;;32.70;44.20;;;;;;4985805;28;20888;-76
2022/08/03 12:38:32;;;;;;;45.03;42.93;;;32.70;45.00;;;;;;4984930;28;21001;-75
2022/08/03 12:41:01;;;;;;;62.53;59.47;;;32.90;43.90;;;;;;4989515;28;20466;-75
2022/08/03 12:43:28;;;;;;;47.30;45.07;;;32.80;44.40;;;;;;4985833;28;20457;-74
2022/08/03 12:46:11;;;;;;;58.33;55.40;;;32.70;44.30;;;;;;4982341;28;20498;-74
2022/08/03 12:49:04;;;;;;;43.23;40.47;;;32.80;43.90;;;;;;4984250;28;20552;-74
2022/08/03 12:51:33;;;;;;;67.00;63.90;;;33.10;43.10;;;;;;4987157;28;20485;-72
2022/08/03 12:54:01;;;;;;;52.50;50.00;;;33.00;43.10;;;;;;4988354;28;20556;-72
2022/08/03 12:56:28;;;;;;;43.07;41.03;;;33.10;42.90;;;;;;4988103;28;20565;-73